This is the latest recevied weather packets stored in our database for station/object N1KM-15. If no packets are shown the sender has not sent any weather packets the latest 1 day(s).
| Time | Temp. | Humidity | Pressure | Rain* | Wind** | Luminosity | Snow |
|---|---|---|---|---|---|---|---|
| 1778004000 | 15.56° C | 75% | 1008.4 hPa | 0 mm | 3.13 m/s, 161° | - | - |
| 1778003100 | 15.56° C | 74% | 1008.5 hPa | 0 mm | 2.24 m/s, 191° | - | - |
| 1778002200 | 16.11° C | 73% | 1008.5 hPa | 0 mm | 1.79 m/s, 143° | - | - |
| 1778001300 | 16.11° C | 73% | 1008.6 hPa | 0 mm | 3.13 m/s, 204° | - | - |
| 1778000400 | 16.11° C | 74% | 1008.7 hPa | 0 mm | 2.24 m/s, 161° | - | - |
| 1777999500 | 16.11° C | 73% | 1008.8 hPa | 0 mm | 1.79 m/s, 214° | - | - |
| 1777998600 | 15.56° C | 74% | 1008.8 hPa | 0 mm | 3.13 m/s, 129° | - | - |
| 1777997700 | 15° C | 77% | 1009.2 hPa | 0 mm | 0.45 m/s, 202° | - | - |
| 1777996800 | 14.44° C | 78% | 1009.7 hPa | 0 mm | 0.45 m/s, 146° | - | - |
| 1777995900 | 15° C | 77% | 1009.4 hPa | 0 mm | 1.79 m/s, 132° | - | - |
| 1777995000 | 16.11° C | 74% | 1009.2 hPa | 0 mm | 1.79 m/s, 150° | - | - |
| 1777994100 | 16.67° C | 72% | 1009 hPa | 0 mm | 2.68 m/s, 121° | - | - |
| 1777993200 | 16.11° C | 73% | 1008.9 hPa | 0 mm | 2.24 m/s, 198° | - | - |
| 1777992300 | 16.11° C | 73% | 1009.3 hPa | 0 mm | 0 m/s | - | - |
| 1777991400 | 16.11° C | 74% | 1009 hPa | 0 mm | 0.45 m/s, 257° | - | - |
| 1777990500 | 15.56° C | 74% | 1009 hPa | 0 mm | 1.34 m/s, 166° | - | - |
| 1777989600 | 15° C | 77% | 1009.1 hPa | 0 mm | 0.89 m/s, 153° | - | - |
| 1777988700 | 15° C | 77% | 1009.2 hPa | 0 mm | 2.24 m/s, 208° | - | - |
| 1777987800 | 14.44° C | 78% | 1009.5 hPa | 0 mm | 0.89 m/s, 167° | - | - |
| 1777986900 | 14.44° C | 77% | 1009.3 hPa | 0 mm | 0.89 m/s, 119° | - | - |
| 1777986000 | 13.89° C | 80% | 1009.4 hPa | 0 mm | 1.34 m/s, 142° | - | - |
| 1777985100 | 13.33° C | 81% | 1009.4 hPa | 0 mm | 0.89 m/s, 196° | - | - |
| 1777984200 | 12.78° C | 82% | 1009.3 hPa | 0 mm | 1.34 m/s, 222° | - | - |
| 1777983300 | 12.78° C | 83% | 1009.4 hPa | 0 mm | 1.34 m/s, 199° | - | - |
| 1777982400 | 12.22° C | 83% | 1009.4 hPa | 0 mm | 3.13 m/s, 201° | - | - |
* Rain since midnight (hover to see other rain measurements)
** Current wind speed in m/s (hover to see current wind gust speed)